createdAt,value
2023-04-03T00:02:42.080Z,1.77
2023-04-03T00:06:44.382Z,2.28
2023-04-03T00:10:46.727Z,3.03
2023-04-03T00:14:48.834Z,2.05
2023-04-03T00:18:50.950Z,2.45
2023-04-03T00:22:57.235Z,2.35
2023-04-03T00:26:59.251Z,2.55
2023-04-03T00:31:07.484Z,2.00
2023-04-03T00:35:10.728Z,2.22
2023-04-03T00:39:13.463Z,2.22
2023-04-03T00:43:24.535Z,2.00
2023-04-03T00:47:27.168Z,2.17
2023-04-03T00:51:29.438Z,2.00
2023-04-03T00:55:32.697Z,2.42
2023-04-03T00:59:39.673Z,1.80
2023-04-03T01:03:41.809Z,2.13
2023-04-03T01:07:45.591Z,2.08
2023-04-03T01:11:48.331Z,2.03
2023-04-03T01:15:50.885Z,2.88
2023-04-03T01:20:17.014Z,1.40
2023-04-03T01:24:39.531Z,2.17
2023-04-03T01:28:44.163Z,1.95
2023-04-03T01:32:46.315Z,1.60
2023-04-03T01:36:49.105Z,1.88
2023-04-03T01:40:51.603Z,1.95
2023-04-03T01:44:53.841Z,1.90
2023-04-03T01:48:56.098Z,2.28
2023-04-03T01:52:58.585Z,2.25
2023-04-03T01:57:00.958Z,2.30
2023-04-03T02:01:04.075Z,1.77
2023-04-03T02:05:07.328Z,1.70
2023-04-03T02:09:09.598Z,1.80
2023-04-03T02:13:12.141Z,1.95
2023-04-03T02:17:14.504Z,2.08
2023-04-03T02:21:16.600Z,2.70
2023-04-03T02:25:19.357Z,1.65
2023-04-03T02:29:21.840Z,2.10
2023-04-03T02:33:24.020Z,2.20
2023-04-03T02:37:26.612Z,1.80
2023-04-03T02:41:35.864Z,1.83
2023-04-03T02:45:40.822Z,1.50
2023-04-03T02:49:46.068Z,2.13
2023-04-03T02:53:48.185Z,1.98
2023-04-03T02:57:55.049Z,1.60
2023-04-03T03:01:57.728Z,1.98
2023-04-03T03:06:04.971Z,1.38
2023-04-03T03:10:07.368Z,1.80
2023-04-03T03:14:10.679Z,2.22
2023-04-03T03:18:12.817Z,1.90
2023-04-03T03:22:15.226Z,1.90
2023-04-03T03:26:17.425Z,1.92
2023-04-03T03:30:19.555Z,1.88
2023-04-03T03:34:22.035Z,1.80
2023-04-03T03:38:24.451Z,1.73
2023-04-03T03:42:27.193Z,1.98
2023-04-03T03:46:29.646Z,1.83
2023-04-03T03:50:31.828Z,2.20
2023-04-03T03:54:34.203Z,2.95
2023-04-03T03:58:37.103Z,2.13
2023-04-03T04:02:39.890Z,2.25
2023-04-03T04:06:42.308Z,1.67
2023-04-03T04:10:46.323Z,2.17
2023-04-03T04:14:50.744Z,2.35
2023-04-03T04:18:53.100Z,2.35
2023-04-03T04:22:56.263Z,2.03
2023-04-03T04:26:59.339Z,2.72
2023-04-03T04:31:01.742Z,2.58
2023-04-03T04:35:06.030Z,1.90
2023-04-03T04:39:10.800Z,2.03
2023-04-03T04:43:15.567Z,2.25
2023-04-03T04:47:19.697Z,2.13
2023-04-03T04:51:22.057Z,2.28
2023-04-03T04:55:24.325Z,2.00
2023-04-03T04:59:26.664Z,3.10
2023-04-03T05:03:31.582Z,1.90
2023-04-03T05:07:34.512Z,2.60
2023-04-03T05:11:37.681Z,2.22
2023-04-03T05:15:42.137Z,2.25
2023-04-03T05:19:44.460Z,2.30
2023-04-03T05:23:47.916Z,2.58
2023-04-03T05:27:51.010Z,2.17
2023-04-03T05:31:53.534Z,2.40
2023-04-03T05:35:55.995Z,2.40
2023-04-03T05:40:04.119Z,2.10
2023-04-03T05:44:06.898Z,2.10
2023-04-03T05:48:09.450Z,2.30
2023-04-03T05:52:23.728Z,2.90
2023-04-03T05:56:27.362Z,2.15
2023-04-03T06:00:29.900Z,2.92
2023-04-03T06:04:37.523Z,1.95
2023-04-03T06:08:40.441Z,2.17
2023-04-03T06:12:42.856Z,2.35
2023-04-03T06:16:45.885Z,3.03
2023-04-03T06:20:48.270Z,2.50
2023-04-03T06:24:50.352Z,2.88
2023-04-03T06:28:55.344Z,2.42
2023-04-03T06:32:57.726Z,2.95
2023-04-03T06:43:34.578Z,2.55
2023-04-03T06:47:37.066Z,2.35
2023-04-03T06:51:39.446Z,2.88
2023-04-03T06:55:42.515Z,2.28
2023-04-03T06:59:44.664Z,2.00
2023-04-03T07:03:47.505Z,3.50
2023-04-03T07:07:50.854Z,2.55
2023-04-03T07:11:52.907Z,2.72
2023-04-03T07:15:55.455Z,2.50
2023-04-03T07:19:57.711Z,2.38
2023-04-03T07:23:59.885Z,3.30
2023-04-03T07:28:02.025Z,2.63
2023-04-03T07:32:04.651Z,2.60
2023-04-03T07:36:10.529Z,2.38
2023-04-03T07:40:12.910Z,2.90
2023-04-03T07:44:14.944Z,2.40
2023-04-03T07:48:18.679Z,2.50
2023-04-03T07:52:20.730Z,2.25
2023-04-03T07:56:23.818Z,2.10
2023-04-03T08:00:26.019Z,2.22
2023-04-03T08:04:28.294Z,2.58
2023-04-03T08:08:31.387Z,2.20
2023-04-03T08:12:33.712Z,2.30
2023-04-03T08:16:35.808Z,2.35
2023-04-03T08:20:39.722Z,1.65
2023-04-03T08:24:52.382Z,2.22
2023-04-03T08:29:00.485Z,1.92
2023-04-03T08:33:03.432Z,1.73
2023-04-03T08:37:06.321Z,2.03
2023-04-03T08:41:24.366Z,1.45
2023-04-03T08:45:44.581Z,1.70
2023-04-03T08:49:52.641Z,1.60
2023-04-03T08:54:01.799Z,2.00
2023-04-03T08:58:30.485Z,1.95
2023-04-03T09:02:42.737Z,1.60
2023-04-03T09:06:50.882Z,1.92
2023-04-03T09:11:22.997Z,1.60
2023-04-03T09:15:37.788Z,1.70
2023-04-03T09:20:09.861Z,2.05
2023-04-03T09:24:14.691Z,1.70
2023-04-03T09:28:16.780Z,1.60
2023-04-03T09:32:33.634Z,2.20
2023-04-03T09:36:39.764Z,2.13
2023-04-03T09:40:41.718Z,1.95
2023-04-03T09:44:53.726Z,1.83
2023-04-03T09:49:08.898Z,1.58
2023-04-03T09:53:28.987Z,2.63
2023-04-03T09:57:34.221Z,1.67
2023-04-03T10:01:39.223Z,1.67
2023-04-03T10:05:43.262Z,2.00
2023-04-03T10:09:56.582Z,1.85
2023-04-03T10:14:06.240Z,1.38
2023-04-03T10:18:35.112Z,1.58
2023-04-03T10:22:46.663Z,1.65
2023-04-03T10:27:11.746Z,1.50
2023-04-03T10:31:28.663Z,1.88
2023-04-03T10:35:54.409Z,4.15
2023-04-03T10:40:06.086Z,1.88
2023-04-03T10:44:28.069Z,1.65
2023-04-03T10:48:50.138Z,1.30
2023-04-03T10:53:13.852Z,1.45
2023-04-03T10:57:16.034Z,1.40
2023-04-03T11:01:23.543Z,1.63
2023-04-03T11:05:37.943Z,1.63
2023-04-03T11:09:44.776Z,2.70
2023-04-03T11:13:55.931Z,1.20
2023-04-03T11:18:46.064Z,1.70
2023-04-03T11:27:09.454Z,2.17
2023-04-03T11:31:31.066Z,1.70
2023-04-03T11:35:34.969Z,1.05
2023-04-03T11:39:39.584Z,2.42
2023-04-03T11:43:56.410Z,1.23
2023-04-03T11:48:09.949Z,1.52
2023-04-03T11:52:56.668Z,2.33
2023-04-03T12:01:07.020Z,1.75
2023-04-03T12:05:32.782Z,1.42
2023-04-03T12:09:34.976Z,1.52
2023-04-03T12:14:05.985Z,1.42
2023-04-03T12:18:53.071Z,2.22
2023-04-03T12:23:09.667Z,1.42
2023-04-03T12:27:24.347Z,2.55
2023-04-03T12:31:42.110Z,2.80
2023-04-03T12:35:58.497Z,1.48
2023-04-03T12:40:20.540Z,1.20
2023-04-03T12:44:41.625Z,1.45
2023-04-03T12:48:46.583Z,1.45
2023-04-03T12:52:56.295Z,1.95
2023-04-03T12:57:17.819Z,1.60
2023-04-03T13:01:24.472Z,1.55
2023-04-03T13:05:27.564Z,1.33
2023-04-03T13:09:33.534Z,4.18
2023-04-03T13:13:36.745Z,2.38
2023-04-03T13:17:43.612Z,2.28
2023-04-03T13:21:46.458Z,1.85
2023-04-03T13:25:50.559Z,4.63
2023-04-03T13:30:00.288Z,4.43
2023-04-03T13:34:17.125Z,3.47
2023-04-03T13:38:19.208Z,2.88
2023-04-03T13:42:27.836Z,2.22
2023-04-03T13:46:30.094Z,2.08
2023-04-03T13:50:32.170Z,2.60
2023-04-03T13:54:39.640Z,1.17
2023-04-03T13:58:55.856Z,2.38
2023-04-03T14:02:58.573Z,1.45
2023-04-03T14:07:00.730Z,1.50
2023-04-03T14:11:03.219Z,1.52
2023-04-03T14:15:16.702Z,1.98
2023-04-03T14:19:25.705Z,1.27
2023-04-03T14:23:27.771Z,1.42
2023-04-03T14:27:35.281Z,6.32
2023-04-03T14:31:37.411Z,1.55
2023-04-03T14:35:39.616Z,1.73
2023-04-03T14:39:43.063Z,3.58
2023-04-03T14:43:46.701Z,1.73
2023-04-03T14:47:51.512Z,1.50
2023-04-03T14:51:53.745Z,1.40
2023-04-03T14:55:56.080Z,1.83
2023-04-03T14:59:58.859Z,2.10
2023-04-03T15:04:01.126Z,2.22
2023-04-03T15:08:03.190Z,2.25
2023-04-03T15:12:05.383Z,6.10
2023-04-03T15:16:16.111Z,1.63
2023-04-03T15:20:21.882Z,2.20
2023-04-03T15:24:23.975Z,2.22
2023-04-03T15:28:34.645Z,4.47
2023-04-03T15:32:37.157Z,4.53
2023-04-03T15:36:39.278Z,7.25
2023-04-03T15:40:41.724Z,5.32
2023-04-03T15:44:43.768Z,2.78
2023-04-03T15:48:45.963Z,3.28
2023-04-03T15:52:48.177Z,2.35
2023-04-03T15:56:50.573Z,4.03
2023-04-03T16:00:52.841Z,4.50
2023-04-03T16:04:56.368Z,7.15
2023-04-03T16:08:59.072Z,2.80
2023-04-03T16:13:01.070Z,4.05
2023-04-03T16:17:03.349Z,4.30
2023-04-03T16:21:08.931Z,3.65
2023-04-03T16:25:12.312Z,2.97
2023-04-03T16:29:14.718Z,9.00
2023-04-03T16:33:17.767Z,12.63
2023-04-03T16:37:20.163Z,9.77
2023-04-03T16:41:22.670Z,7.10
2023-04-03T16:45:24.894Z,5.45
2023-04-03T16:49:31.218Z,4.28
2023-04-03T16:53:33.474Z,8.25
2023-04-03T16:57:35.602Z,3.67
2023-04-03T17:01:37.859Z,7.07
2023-04-03T17:05:40.280Z,5.72
2023-04-03T17:09:42.616Z,4.40
2023-04-03T17:13:44.933Z,5.55
2023-04-03T17:17:49.049Z,7.40
2023-04-03T17:21:52.521Z,6.35
2023-04-03T17:25:55.920Z,5.47
2023-04-03T17:29:58.656Z,4.28
2023-04-03T17:34:01.846Z,5.05
2023-04-03T17:38:04.811Z,4.85
2023-04-03T17:42:06.992Z,5.25
2023-04-03T17:46:10.814Z,6.63
2023-04-03T17:50:16.045Z,6.57
2023-04-03T17:54:18.456Z,4.25
2023-04-03T17:58:20.703Z,6.22
2023-04-03T18:02:23.195Z,6.22
2023-04-03T18:06:32.486Z,5.38
2023-04-03T18:10:37.415Z,5.45
2023-04-03T18:14:41.038Z,5.30
2023-04-03T18:18:43.619Z,5.80
2023-04-03T18:22:46.023Z,5.85
2023-04-03T18:26:53.704Z,6.25
2023-04-03T18:30:56.025Z,4.97
2023-04-03T18:35:00.557Z,4.43
2023-04-03T18:39:03.789Z,3.45
2023-04-03T18:43:06.562Z,4.05
2023-04-03T18:47:09.149Z,4.70
2023-04-03T18:51:12.370Z,4.50
2023-04-03T18:55:16.300Z,3.95
2023-04-03T18:59:18.742Z,5.07
2023-04-03T19:03:21.390Z,4.80
2023-04-03T19:07:23.793Z,5.75
2023-04-03T19:11:29.573Z,6.10
2023-04-03T19:15:35.153Z,7.70
2023-04-03T19:19:37.412Z,6.95
2023-04-03T19:23:42.756Z,7.75
2023-04-03T19:27:45.285Z,6.25
2023-04-03T19:31:47.621Z,6.63
2023-04-03T19:35:49.741Z,5.20
2023-04-03T19:39:51.802Z,5.38
2023-04-03T19:43:56.003Z,5.82
2023-04-03T19:48:01.428Z,6.10
2023-04-03T19:52:04.847Z,6.53
2023-04-03T19:56:07.432Z,7.30
2023-04-03T20:00:10.340Z,7.57
2023-04-03T20:04:16.016Z,7.97
2023-04-03T20:08:18.957Z,8.43
2023-04-03T20:12:21.174Z,7.82
2023-04-03T20:16:25.418Z,6.82
2023-04-03T20:20:28.653Z,7.70
2023-04-03T20:24:31.396Z,7.00
2023-04-03T20:28:34.125Z,6.35
2023-04-03T20:32:36.141Z,7.03
2023-04-03T20:36:38.773Z,8.02
2023-04-03T20:40:40.932Z,8.38
2023-04-03T20:44:45.946Z,8.18
2023-04-03T20:48:48.198Z,6.72
2023-04-03T20:52:50.314Z,7.00
2023-04-03T20:56:52.869Z,6.38
2023-04-03T21:00:56.648Z,5.10
2023-04-03T21:04:58.980Z,6.35
2023-04-03T21:09:39.030Z,6.63
2023-04-03T21:14:19.338Z,6.10
2023-04-03T21:18:57.301Z,5.78
2023-04-03T21:22:59.360Z,5.47
2023-04-03T21:27:03.005Z,5.93
2023-04-03T21:31:06.437Z,5.75
2023-04-03T21:35:09.507Z,6.38
2023-04-03T21:39:12.251Z,5.80
2023-04-03T21:43:14.469Z,5.65
2023-04-03T21:47:16.852Z,7.00
2023-04-03T21:51:18.880Z,6.05
2023-04-03T21:55:20.916Z,5.75
2023-04-03T21:59:23.255Z,8.60
2023-04-03T22:03:25.616Z,8.48
2023-04-03T22:07:27.799Z,8.70
2023-04-03T22:11:30.378Z,9.85
2023-04-03T22:15:36.834Z,7.90
2023-04-03T22:19:39.073Z,7.65
2023-04-03T22:23:41.262Z,8.98
2023-04-03T22:27:43.233Z,8.45
2023-04-03T22:31:45.357Z,6.75
2023-04-03T22:35:48.717Z,6.63
2023-04-03T22:39:50.958Z,6.72
2023-04-03T22:43:52.948Z,7.38
2023-04-03T22:47:58.692Z,8.07
2023-04-03T22:52:00.982Z,6.32
2023-04-03T22:56:05.684Z,6.78
2023-04-03T23:00:08.424Z,6.18
2023-04-03T23:04:10.520Z,7.25
2023-04-03T23:08:12.648Z,6.40
2023-04-03T23:12:14.479Z,7.25
2023-04-03T23:16:17.351Z,5.57
2023-04-03T23:20:19.599Z,5.00
2023-04-03T23:24:22.688Z,6.32
2023-04-03T23:28:25.428Z,5.28
2023-04-03T23:32:27.515Z,5.40
2023-04-03T23:36:29.552Z,4.88
2023-04-03T23:40:31.650Z,5.10
2023-04-03T23:44:33.377Z,4.63
2023-04-03T23:48:35.485Z,4.60
2023-04-03T23:52:37.534Z,5.32
2023-04-03T23:56:39.555Z,6.03
